sensor_id;sensor_type;location;lat;lon;timestamp;P1;durP1;ratioP1;P2;durP2;ratioP2
4049;SDS011;2039;50.894;6.888;2023-12-20T00:01:22;31.10;;;5.80;;
4049;SDS011;2039;50.894;6.888;2023-12-20T00:03:47;31.90;;;6.43;;
4049;SDS011;2039;50.894;6.888;2023-12-20T00:06:13;31.00;;;5.60;;
4049;SDS011;2039;50.894;6.888;2023-12-20T00:08:39;32.70;;;6.67;;
4049;SDS011;2039;50.894;6.888;2023-12-20T00:11:05;31.50;;;6.57;;
4049;SDS011;2039;50.894;6.888;2023-12-20T00:13:30;33.90;;;6.67;;
4049;SDS011;2039;50.894;6.888;2023-12-20T00:15:56;30.37;;;5.87;;
4049;SDS011;2039;50.894;6.888;2023-12-20T00:18:22;30.77;;;6.00;;
4049;SDS011;2039;50.894;6.888;2023-12-20T00:20:48;31.88;;;6.18;;
4049;SDS011;2039;50.894;6.888;2023-12-20T00:23:13;32.60;;;6.37;;
4049;SDS011;2039;50.894;6.888;2023-12-20T00:25:39;32.83;;;5.93;;
4049;SDS011;2039;50.894;6.888;2023-12-20T00:28:05;32.20;;;6.20;;
4049;SDS011;2039;50.894;6.888;2023-12-20T00:30:30;30.27;;;4.93;;
4049;SDS011;2039;50.894;6.888;2023-12-20T00:32:56;31.53;;;5.30;;
4049;SDS011;2039;50.894;6.888;2023-12-20T00:35:22;32.00;;;6.07;;
4049;SDS011;2039;50.894;6.888;2023-12-20T00:37:47;33.97;;;7.00;;
4049;SDS011;2039;50.894;6.888;2023-12-20T00:40:13;34.63;;;6.23;;
4049;SDS011;2039;50.894;6.888;2023-12-20T00:42:39;32.30;;;6.70;;
4049;SDS011;2039;50.894;6.888;2023-12-20T00:45:05;32.07;;;6.10;;
4049;SDS011;2039;50.894;6.888;2023-12-20T00:47:31;32.25;;;5.80;;
4049;SDS011;2039;50.894;6.888;2023-12-20T00:49:57;32.60;;;6.37;;
4049;SDS011;2039;50.894;6.888;2023-12-20T00:52:23;32.92;;;6.55;;
4049;SDS011;2039;50.894;6.888;2023-12-20T00:54:50;32.63;;;6.40;;
4049;SDS011;2039;50.894;6.888;2023-12-20T00:57:16;31.80;;;6.13;;
4049;SDS011;2039;50.894;6.888;2023-12-20T00:59:41;33.00;;;6.17;;
4049;SDS011;2039;50.894;6.888;2023-12-20T01:02:07;31.77;;;6.07;;
4049;SDS011;2039;50.894;6.888;2023-12-20T01:04:35;31.63;;;5.60;;
4049;SDS011;2039;50.894;6.888;2023-12-20T01:07:01;30.10;;;5.30;;
4049;SDS011;2039;50.894;6.888;2023-12-20T01:09:27;32.17;;;5.80;;
4049;SDS011;2039;50.894;6.888;2023-12-20T01:11:53;32.80;;;6.60;;
4049;SDS011;2039;50.894;6.888;2023-12-20T01:14:18;33.65;;;6.50;;
4049;SDS011;2039;50.894;6.888;2023-12-20T01:16:44;31.10;;;6.00;;
4049;SDS011;2039;50.894;6.888;2023-12-20T01:19:10;34.10;;;6.73;;
4049;SDS011;2039;50.894;6.888;2023-12-20T01:21:36;34.83;;;8.00;;
4049;SDS011;2039;50.894;6.888;2023-12-20T01:24:02;37.70;;;7.70;;
4049;SDS011;2039;50.894;6.888;2023-12-20T01:26:27;34.07;;;7.67;;
4049;SDS011;2039;50.894;6.888;2023-12-20T01:28:53;37.10;;;8.47;;
4049;SDS011;2039;50.894;6.888;2023-12-20T01:31:19;36.50;;;6.90;;
4049;SDS011;2039;50.894;6.888;2023-12-20T01:33:44;37.30;;;7.63;;
4049;SDS011;2039;50.894;6.888;2023-12-20T01:36:10;40.60;;;9.65;;
4049;SDS011;2039;50.894;6.888;2023-12-20T01:38:36;36.67;;;9.00;;
4049;SDS011;2039;50.894;6.888;2023-12-20T01:41:02;39.42;;;9.43;;
4049;SDS011;2039;50.894;6.888;2023-12-20T01:43:28;41.77;;;9.90;;
4049;SDS011;2039;50.894;6.888;2023-12-20T01:45:55;37.63;;;8.55;;
4049;SDS011;2039;50.894;6.888;2023-12-20T01:48:22;37.50;;;8.98;;
4049;SDS011;2039;50.894;6.888;2023-12-20T01:50:49;37.33;;;9.45;;
4049;SDS011;2039;50.894;6.888;2023-12-20T01:53:15;34.73;;;8.60;;
4049;SDS011;2039;50.894;6.888;2023-12-20T01:55:42;35.97;;;8.80;;
4049;SDS011;2039;50.894;6.888;2023-12-20T01:58:09;34.17;;;7.32;;
4049;SDS011;2039;50.894;6.888;2023-12-20T02:00:36;34.22;;;7.57;;
4049;SDS011;2039;50.894;6.888;2023-12-20T02:03:02;32.88;;;6.30;;
4049;SDS011;2039;50.894;6.888;2023-12-20T02:05:31;38.97;;;7.93;;
4049;SDS011;2039;50.894;6.888;2023-12-20T02:07:59;33.70;;;6.75;;
4049;SDS011;2039;50.894;6.888;2023-12-20T02:10:25;36.47;;;7.17;;
4049;SDS011;2039;50.894;6.888;2023-12-20T02:12:51;33.20;;;5.90;;
4049;SDS011;2039;50.894;6.888;2023-12-20T02:15:17;36.10;;;5.70;;
4049;SDS011;2039;50.894;6.888;2023-12-20T02:17:43;33.10;;;5.80;;
4049;SDS011;2039;50.894;6.888;2023-12-20T02:20:10;33.28;;;6.00;;
4049;SDS011;2039;50.894;6.888;2023-12-20T02:22:36;39.60;;;5.60;;
4049;SDS011;2039;50.894;6.888;2023-12-20T02:25:04;31.27;;;5.10;;
4049;SDS011;2039;50.894;6.888;2023-12-20T02:27:30;30.87;;;5.07;;
4049;SDS011;2039;50.894;6.888;2023-12-20T02:29:56;30.15;;;4.43;;
4049;SDS011;2039;50.894;6.888;2023-12-20T02:32:22;32.37;;;4.13;;
4049;SDS011;2039;50.894;6.888;2023-12-20T02:34:52;32.13;;;4.47;;
4049;SDS011;2039;50.894;6.888;2023-12-20T02:37:18;28.95;;;3.30;;
4049;SDS011;2039;50.894;6.888;2023-12-20T02:39:44;28.50;;;2.90;;
4049;SDS011;2039;50.894;6.888;2023-12-20T02:42:09;28.77;;;3.33;;
4049;SDS011;2039;50.894;6.888;2023-12-20T02:44:35;28.63;;;2.93;;
4049;SDS011;2039;50.894;6.888;2023-12-20T02:47:01;28.50;;;2.80;;
4049;SDS011;2039;50.894;6.888;2023-12-20T02:49:28;29.30;;;2.95;;
4049;SDS011;2039;50.894;6.888;2023-12-20T02:51:53;26.77;;;2.37;;
4049;SDS011;2039;50.894;6.888;2023-12-20T02:54:19;27.67;;;2.80;;
4049;SDS011;2039;50.894;6.888;2023-12-20T02:56:45;36.83;;;3.37;;
4049;SDS011;2039;50.894;6.888;2023-12-20T02:59:10;33.13;;;3.57;;
4049;SDS011;2039;50.894;6.888;2023-12-20T03:01:41;28.27;;;2.90;;
4049;SDS011;2039;50.894;6.888;2023-12-20T03:04:11;29.15;;;2.70;;
4049;SDS011;2039;50.894;6.888;2023-12-20T03:06:37;30.52;;;3.55;;
4049;SDS011;2039;50.894;6.888;2023-12-20T03:09:03;30.40;;;2.97;;
4049;SDS011;2039;50.894;6.888;2023-12-20T03:11:29;28.13;;;2.75;;
4049;SDS011;2039;50.894;6.888;2023-12-20T03:13:56;37.47;;;2.88;;
4049;SDS011;2039;50.894;6.888;2023-12-20T03:16:21;26.58;;;2.75;;
4049;SDS011;2039;50.894;6.888;2023-12-20T03:18:47;33.47;;;2.70;;
4049;SDS011;2039;50.894;6.888;2023-12-20T03:21:13;28.60;;;3.20;;
4049;SDS011;2039;50.894;6.888;2023-12-20T03:23:39;31.60;;;3.27;;
4049;SDS011;2039;50.894;6.888;2023-12-20T03:26:08;39.67;;;3.00;;
4049;SDS011;2039;50.894;6.888;2023-12-20T03:28:37;27.60;;;2.25;;
4049;SDS011;2039;50.894;6.888;2023-12-20T03:31:03;35.10;;;4.17;;
4049;SDS011;2039;50.894;6.888;2023-12-20T03:33:29;25.80;;;2.30;;
4049;SDS011;2039;50.894;6.888;2023-12-20T03:35:54;28.83;;;3.13;;
4049;SDS011;2039;50.894;6.888;2023-12-20T03:38:20;29.50;;;3.13;;
4049;SDS011;2039;50.894;6.888;2023-12-20T03:40:47;28.80;;;2.85;;
4049;SDS011;2039;50.894;6.888;2023-12-20T03:43:12;32.30;;;3.20;;
4049;SDS011;2039;50.894;6.888;2023-12-20T03:45:38;32.90;;;3.87;;
4049;SDS011;2039;50.894;6.888;2023-12-20T03:48:04;33.60;;;3.33;;
4049;SDS011;2039;50.894;6.888;2023-12-20T03:50:30;29.60;;;2.92;;
4049;SDS011;2039;50.894;6.888;2023-12-20T03:52:56;26.90;;;3.63;;
4049;SDS011;2039;50.894;6.888;2023-12-20T03:55:21;29.57;;;4.27;;
4049;SDS011;2039;50.894;6.888;2023-12-20T03:57:47;28.80;;;3.20;;
4049;SDS011;2039;50.894;6.888;2023-12-20T04:00:13;29.00;;;3.50;;
4049;SDS011;2039;50.894;6.888;2023-12-20T04:02:39;33.57;;;3.70;;
4049;SDS011;2039;50.894;6.888;2023-12-20T04:05:06;27.40;;;3.88;;
4049;SDS011;2039;50.894;6.888;2023-12-20T04:07:32;31.77;;;3.83;;
4049;SDS011;2039;50.894;6.888;2023-12-20T04:09:59;32.63;;;4.25;;
4049;SDS011;2039;50.894;6.888;2023-12-20T04:12:24;29.70;;;3.23;;
4049;SDS011;2039;50.894;6.888;2023-12-20T04:14:51;28.58;;;3.85;;
4049;SDS011;2039;50.894;6.888;2023-12-20T04:17:17;40.40;;;4.00;;
4049;SDS011;2039;50.894;6.888;2023-12-20T04:19:43;32.28;;;3.63;;
4049;SDS011;2039;50.894;6.888;2023-12-20T04:22:08;29.10;;;3.83;;
4049;SDS011;2039;50.894;6.888;2023-12-20T04:24:34;33.30;;;4.43;;
4049;SDS011;2039;50.894;6.888;2023-12-20T04:27:00;30.60;;;3.60;;
4049;SDS011;2039;50.894;6.888;2023-12-20T04:29:26;30.80;;;3.92;;
4049;SDS011;2039;50.894;6.888;2023-12-20T04:31:52;32.23;;;4.07;;
4049;SDS011;2039;50.894;6.888;2023-12-20T04:34:18;28.27;;;3.70;;
4049;SDS011;2039;50.894;6.888;2023-12-20T04:36:44;26.63;;;3.37;;
4049;SDS011;2039;50.894;6.888;2023-12-20T04:39:11;28.42;;;3.25;;
4049;SDS011;2039;50.894;6.888;2023-12-20T04:41:37;34.53;;;4.53;;
4049;SDS011;2039;50.894;6.888;2023-12-20T04:44:03;30.77;;;3.70;;
4049;SDS011;2039;50.894;6.888;2023-12-20T04:46:29;34.33;;;3.67;;
4049;SDS011;2039;50.894;6.888;2023-12-20T04:48:54;28.63;;;3.60;;
4049;SDS011;2039;50.894;6.888;2023-12-20T04:51:20;34.10;;;4.47;;
4049;SDS011;2039;50.894;6.888;2023-12-20T04:53:46;33.30;;;3.70;;
4049;SDS011;2039;50.894;6.888;2023-12-20T04:56:11;30.17;;;3.50;;
4049;SDS011;2039;50.894;6.888;2023-12-20T04:58:37;29.20;;;3.80;;
4049;SDS011;2039;50.894;6.888;2023-12-20T05:01:03;25.97;;;3.90;;
4049;SDS011;2039;50.894;6.888;2023-12-20T05:03:31;29.95;;;4.13;;
4049;SDS011;2039;50.894;6.888;2023-12-20T05:05:57;34.87;;;3.40;;
4049;SDS011;2039;50.894;6.888;2023-12-20T05:08:23;33.17;;;3.65;;
4049;SDS011;2039;50.894;6.888;2023-12-20T05:10:50;29.08;;;3.00;;
4049;SDS011;2039;50.894;6.888;2023-12-20T05:13:16;28.77;;;4.00;;
4049;SDS011;2039;50.894;6.888;2023-12-20T05:15:42;27.53;;;3.30;;
4049;SDS011;2039;50.894;6.888;2023-12-20T05:18:08;28.60;;;3.77;;
4049;SDS011;2039;50.894;6.888;2023-12-20T05:20:33;31.70;;;3.07;;
4049;SDS011;2039;50.894;6.888;2023-12-20T05:22:59;32.37;;;4.10;;
4049;SDS011;2039;50.894;6.888;2023-12-20T05:25:25;32.33;;;3.10;;
4049;SDS011;2039;50.894;6.888;2023-12-20T05:27:50;27.23;;;3.50;;
4049;SDS011;2039;50.894;6.888;2023-12-20T05:30:16;29.37;;;3.30;;
4049;SDS011;2039;50.894;6.888;2023-12-20T05:32:42;30.27;;;4.07;;
4049;SDS011;2039;50.894;6.888;2023-12-20T05:35:07;31.83;;;5.17;;
4049;SDS011;2039;50.894;6.888;2023-12-20T05:37:33;34.83;;;5.23;;
4049;SDS011;2039;50.894;6.888;2023-12-20T05:39:58;29.50;;;4.40;;
4049;SDS011;2039;50.894;6.888;2023-12-20T05:42:24;28.20;;;3.67;;
4049;SDS011;2039;50.894;6.888;2023-12-20T05:44:50;28.97;;;4.30;;
4049;SDS011;2039;50.894;6.888;2023-12-20T05:47:15;28.37;;;3.70;;
4049;SDS011;2039;50.894;6.888;2023-12-20T05:49:41;33.30;;;4.33;;
4049;SDS011;2039;50.894;6.888;2023-12-20T05:52:08;37.78;;;3.28;;
4049;SDS011;2039;50.894;6.888;2023-12-20T05:54:34;28.93;;;4.27;;
4049;SDS011;2039;50.894;6.888;2023-12-20T05:57:00;31.23;;;4.23;;
4049;SDS011;2039;50.894;6.888;2023-12-20T05:59:26;28.23;;;4.18;;
4049;SDS011;2039;50.894;6.888;2023-12-20T06:01:54;28.37;;;4.60;;
4049;SDS011;2039;50.894;6.888;2023-12-20T06:04:20;28.92;;;4.03;;
4049;SDS011;2039;50.894;6.888;2023-12-20T06:06:49;33.22;;;5.10;;
4049;SDS011;2039;50.894;6.888;2023-12-20T06:09:15;28.83;;;4.20;;
4049;SDS011;2039;50.894;6.888;2023-12-20T06:11:40;33.47;;;3.90;;
4049;SDS011;2039;50.894;6.888;2023-12-20T06:14:06;30.07;;;3.40;;
4049;SDS011;2039;50.894;6.888;2023-12-20T06:16:32;37.13;;;4.80;;
4049;SDS011;2039;50.894;6.888;2023-12-20T06:18:57;30.07;;;4.20;;
4049;SDS011;2039;50.894;6.888;2023-12-20T06:21:23;30.07;;;3.03;;
4049;SDS011;2039;50.894;6.888;2023-12-20T06:23:49;42.25;;;4.40;;
4049;SDS011;2039;50.894;6.888;2023-12-20T06:26:14;33.30;;;5.13;;
4049;SDS011;2039;50.894;6.888;2023-12-20T06:28:40;35.10;;;3.97;;
4049;SDS011;2039;50.894;6.888;2023-12-20T06:31:06;34.33;;;4.00;;
4049;SDS011;2039;50.894;6.888;2023-12-20T06:33:31;27.60;;;3.93;;
4049;SDS011;2039;50.894;6.888;2023-12-20T06:35:57;34.43;;;5.00;;
4049;SDS011;2039;50.894;6.888;2023-12-20T06:38:23;30.73;;;4.67;;
4049;SDS011;2039;50.894;6.888;2023-12-20T06:40:48;35.87;;;4.40;;
4049;SDS011;2039;50.894;6.888;2023-12-20T06:43:14;31.63;;;4.80;;
4049;SDS011;2039;50.894;6.888;2023-12-20T06:45:40;29.40;;;4.03;;
4049;SDS011;2039;50.894;6.888;2023-12-20T06:48:06;34.27;;;4.70;;
4049;SDS011;2039;50.894;6.888;2023-12-20T06:50:31;28.50;;;3.77;;
4049;SDS011;2039;50.894;6.888;2023-12-20T06:52:57;36.50;;;4.70;;
4049;SDS011;2039;50.894;6.888;2023-12-20T06:55:23;30.13;;;4.00;;
4049;SDS011;2039;50.894;6.888;2023-12-20T06:57:48;30.73;;;3.50;;
4049;SDS011;2039;50.894;6.888;2023-12-20T07:00:14;31.03;;;4.17;;
4049;SDS011;2039;50.894;6.888;2023-12-20T07:02:40;31.67;;;4.40;;
4049;SDS011;2039;50.894;6.888;2023-12-20T07:05:06;33.77;;;4.07;;
4049;SDS011;2039;50.894;6.888;2023-12-20T07:07:32;31.52;;;3.60;;
4049;SDS011;2039;50.894;6.888;2023-12-20T07:09:57;25.87;;;3.50;;
4049;SDS011;2039;50.894;6.888;2023-12-20T07:12:23;29.77;;;4.37;;
4049;SDS011;2039;50.894;6.888;2023-12-20T07:14:49;30.80;;;4.20;;
4049;SDS011;2039;50.894;6.888;2023-12-20T07:17:14;31.80;;;4.33;;
4049;SDS011;2039;50.894;6.888;2023-12-20T07:19:40;33.85;;;4.45;;
4049;SDS011;2039;50.894;6.888;2023-12-20T07:22:07;35.67;;;5.00;;
4049;SDS011;2039;50.894;6.888;2023-12-20T07:24:33;30.02;;;4.45;;
4049;SDS011;2039;50.894;6.888;2023-12-20T07:26:59;35.60;;;4.80;;
4049;SDS011;2039;50.894;6.888;2023-12-20T07:29:25;31.55;;;4.00;;
4049;SDS011;2039;50.894;6.888;2023-12-20T07:31:52;27.60;;;4.07;;
4049;SDS011;2039;50.894;6.888;2023-12-20T07:34:18;28.80;;;5.10;;
4049;SDS011;2039;50.894;6.888;2023-12-20T07:36:47;28.75;;;4.90;;
4049;SDS011;2039;50.894;6.888;2023-12-20T07:39:13;30.00;;;4.00;;
4049;SDS011;2039;50.894;6.888;2023-12-20T07:41:39;33.60;;;4.15;;
4049;SDS011;2039;50.894;6.888;2023-12-20T07:44:06;32.30;;;4.07;;
4049;SDS011;2039;50.894;6.888;2023-12-20T07:46:32;29.40;;;4.00;;
4049;SDS011;2039;50.894;6.888;2023-12-20T07:48:57;30.43;;;4.10;;
4049;SDS011;2039;50.894;6.888;2023-12-20T07:51:23;30.60;;;4.03;;
4049;SDS011;2039;50.894;6.888;2023-12-20T07:53:48;34.60;;;4.30;;
4049;SDS011;2039;50.894;6.888;2023-12-20T07:56:18;31.80;;;4.57;;
4049;SDS011;2039;50.894;6.888;2023-12-20T07:58:45;40.83;;;4.00;;
4049;SDS011;2039;50.894;6.888;2023-12-20T08:01:15;28.17;;;5.18;;
4049;SDS011;2039;50.894;6.888;2023-12-20T08:03:42;25.58;;;5.03;;
4049;SDS011;2039;50.894;6.888;2023-12-20T08:06:10;29.47;;;3.80;;
4049;SDS011;2039;50.894;6.888;2023-12-20T08:08:35;31.58;;;6.35;;
4049;SDS011;2039;50.894;6.888;2023-12-20T08:11:01;35.00;;;4.87;;
4049;SDS011;2039;50.894;6.888;2023-12-20T08:13:27;25.60;;;4.07;;
4049;SDS011;2039;50.894;6.888;2023-12-20T08:15:53;29.42;;;4.15;;
4049;SDS011;2039;50.894;6.888;2023-12-20T08:18:21;29.42;;;3.75;;
4049;SDS011;2039;50.894;6.888;2023-12-20T08:20:48;30.00;;;4.78;;
4049;SDS011;2039;50.894;6.888;2023-12-20T08:23:14;27.53;;;4.50;;
4049;SDS011;2039;50.894;6.888;2023-12-20T08:25:39;28.60;;;4.63;;
4049;SDS011;2039;50.894;6.888;2023-12-20T08:28:05;25.27;;;3.77;;
4049;SDS011;2039;50.894;6.888;2023-12-20T08:30:31;30.53;;;4.37;;
4049;SDS011;2039;50.894;6.888;2023-12-20T08:32:59;28.45;;;3.78;;
4049;SDS011;2039;50.894;6.888;2023-12-20T08:35:25;29.40;;;3.97;;
4049;SDS011;2039;50.894;6.888;2023-12-20T08:37:51;25.60;;;3.70;;
4049;SDS011;2039;50.894;6.888;2023-12-20T08:40:17;34.03;;;3.70;;
4049;SDS011;2039;50.894;6.888;2023-12-20T08:42:43;27.70;;;3.93;;
4049;SDS011;2039;50.894;6.888;2023-12-20T08:45:09;29.30;;;4.20;;
4049;SDS011;2039;50.894;6.888;2023-12-20T08:47:35;28.67;;;4.05;;
4049;SDS011;2039;50.894;6.888;2023-12-20T08:50:02;29.00;;;3.80;;
4049;SDS011;2039;50.894;6.888;2023-12-20T08:52:31;31.88;;;4.43;;
4049;SDS011;2039;50.894;6.888;2023-12-20T08:55:02;32.10;;;3.75;;
4049;SDS011;2039;50.894;6.888;2023-12-20T08:57:28;29.55;;;4.30;;
4049;SDS011;2039;50.894;6.888;2023-12-20T08:59:53;35.27;;;4.10;;
4049;SDS011;2039;50.894;6.888;2023-12-20T09:02:19;31.30;;;3.00;;
4049;SDS011;2039;50.894;6.888;2023-12-20T09:04:51;32.97;;;5.13;;
4049;SDS011;2039;50.894;6.888;2023-12-20T09:07:21;30.10;;;4.30;;
4049;SDS011;2039;50.894;6.888;2023-12-20T09:09:47;24.92;;;3.55;;
4049;SDS011;2039;50.894;6.888;2023-12-20T09:12:13;27.13;;;3.90;;
4049;SDS011;2039;50.894;6.888;2023-12-20T09:14:39;28.37;;;3.40;;
4049;SDS011;2039;50.894;6.888;2023-12-20T09:17:04;28.30;;;3.33;;
4049;SDS011;2039;50.894;6.888;2023-12-20T09:19:33;27.83;;;4.25;;
4049;SDS011;2039;50.894;6.888;2023-12-20T09:21:58;24.43;;;2.90;;
4049;SDS011;2039;50.894;6.888;2023-12-20T09:24:24;29.00;;;4.40;;
4049;SDS011;2039;50.894;6.888;2023-12-20T09:26:50;31.50;;;3.50;;
4049;SDS011;2039;50.894;6.888;2023-12-20T09:29:15;29.07;;;3.30;;
4049;SDS011;2039;50.894;6.888;2023-12-20T09:31:42;26.02;;;2.90;;
4049;SDS011;2039;50.894;6.888;2023-12-20T09:34:09;24.98;;;3.65;;
4049;SDS011;2039;50.894;6.888;2023-12-20T09:36:35;27.83;;;3.67;;
4049;SDS011;2039;50.894;6.888;2023-12-20T09:39:01;34.45;;;3.03;;
4049;SDS011;2039;50.894;6.888;2023-12-20T09:41:28;32.25;;;3.05;;
4049;SDS011;2039;50.894;6.888;2023-12-20T09:44:01;27.15;;;3.38;;
4049;SDS011;2039;50.894;6.888;2023-12-20T09:46:28;26.20;;;3.58;;
4049;SDS011;2039;50.894;6.888;2023-12-20T09:48:58;27.02;;;3.35;;
4049;SDS011;2039;50.894;6.888;2023-12-20T09:51:26;23.55;;;2.90;;
4049;SDS011;2039;50.894;6.888;2023-12-20T09:53:54;27.25;;;3.65;;
4049;SDS011;2039;50.894;6.888;2023-12-20T09:56:21;26.27;;;2.72;;
4049;SDS011;2039;50.894;6.888;2023-12-20T09:58:48;32.17;;;3.72;;
4049;SDS011;2039;50.894;6.888;2023-12-20T10:01:14;30.42;;;3.58;;
4049;SDS011;2039;50.894;6.888;2023-12-20T10:03:42;24.30;;;2.38;;
4049;SDS011;2039;50.894;6.888;2023-12-20T10:06:08;27.95;;;3.30;;
4049;SDS011;2039;50.894;6.888;2023-12-20T10:08:34;25.80;;;2.83;;
4049;SDS011;2039;50.894;6.888;2023-12-20T10:11:00;23.42;;;3.03;;
4049;SDS011;2039;50.894;6.888;2023-12-20T10:13:28;23.25;;;2.83;;
4049;SDS011;2039;50.894;6.888;2023-12-20T10:15:59;26.80;;;3.92;;
4049;SDS011;2039;50.894;6.888;2023-12-20T10:18:28;24.85;;;3.10;;
4049;SDS011;2039;50.894;6.888;2023-12-20T10:20:55;32.35;;;3.42;;
4049;SDS011;2039;50.894;6.888;2023-12-20T10:23:23;24.45;;;3.22;;
4049;SDS011;2039;50.894;6.888;2023-12-20T10:25:56;24.67;;;2.97;;
4049;SDS011;2039;50.894;6.888;2023-12-20T10:28:25;26.13;;;3.40;;
4049;SDS011;2039;50.894;6.888;2023-12-20T10:30:53;33.03;;;3.20;;
4049;SDS011;2039;50.894;6.888;2023-12-20T10:33:25;25.23;;;3.90;;
4049;SDS011;2039;50.894;6.888;2023-12-20T10:35:53;24.92;;;3.13;;
4049;SDS011;2039;50.894;6.888;2023-12-20T10:38:20;21.33;;;2.47;;
4049;SDS011;2039;50.894;6.888;2023-12-20T10:40:50;28.60;;;2.88;;
4049;SDS011;2039;50.894;6.888;2023-12-20T10:43:19;38.90;;;4.07;;
4049;SDS011;2039;50.894;6.888;2023-12-20T10:45:46;30.45;;;2.45;;
4049;SDS011;2039;50.894;6.888;2023-12-20T10:48:12;25.42;;;2.53;;
4049;SDS011;2039;50.894;6.888;2023-12-20T10:50:38;29.23;;;4.17;;
4049;SDS011;2039;50.894;6.888;2023-12-20T10:53:05;25.30;;;3.53;;
4049;SDS011;2039;50.894;6.888;2023-12-20T10:55:35;25.13;;;3.17;;
4049;SDS011;2039;50.894;6.888;2023-12-20T10:58:01;24.08;;;2.55;;
4049;SDS011;2039;50.894;6.888;2023-12-20T11:00:32;27.55;;;2.55;;
4049;SDS011;2039;50.894;6.888;2023-12-20T11:03:04;25.52;;;3.05;;
4049;SDS011;2039;50.894;6.888;2023-12-20T11:08:28;26.42;;;3.50;;
4049;SDS011;2039;50.894;6.888;2023-12-20T11:11:06;23.55;;;2.90;;
4049;SDS011;2039;50.894;6.888;2023-12-20T11:13:40;25.83;;;3.80;;
4049;SDS011;2039;50.894;6.888;2023-12-20T11:16:19;23.15;;;3.67;;
4049;SDS011;2039;50.894;6.888;2023-12-20T11:18:45;23.70;;;3.20;;
4049;SDS011;2039;50.894;6.888;2023-12-20T11:21:10;26.77;;;3.20;;
4049;SDS011;2039;50.894;6.888;2023-12-20T11:23:36;29.45;;;2.97;;
4049;SDS011;2039;50.894;6.888;2023-12-20T11:26:02;23.53;;;2.80;;
4049;SDS011;2039;50.894;6.888;2023-12-20T11:28:28;22.20;;;2.57;;
4049;SDS011;2039;50.894;6.888;2023-12-20T11:30:58;23.35;;;3.15;;
4049;SDS011;2039;50.894;6.888;2023-12-20T11:33:26;25.52;;;3.13;;
4049;SDS011;2039;50.894;6.888;2023-12-20T11:35:56;23.90;;;3.10;;
4049;SDS011;2039;50.894;6.888;2023-12-20T11:38:38;31.75;;;3.97;;
4049;SDS011;2039;50.894;6.888;2023-12-20T11:41:25;24.77;;;2.95;;
4049;SDS011;2039;50.894;6.888;2023-12-20T11:43:54;28.60;;;3.78;;
4049;SDS011;2039;50.894;6.888;2023-12-20T11:46:21;27.33;;;3.25;;
4049;SDS011;2039;50.894;6.888;2023-12-20T11:48:47;29.80;;;3.67;;
4049;SDS011;2039;50.894;6.888;2023-12-20T11:51:13;35.37;;;4.00;;
4049;SDS011;2039;50.894;6.888;2023-12-20T11:53:40;26.53;;;3.27;;
4049;SDS011;2039;50.894;6.888;2023-12-20T11:56:07;27.42;;;3.67;;
4049;SDS011;2039;50.894;6.888;2023-12-20T11:58:33;28.88;;;3.50;;
4049;SDS011;2039;50.894;6.888;2023-12-20T12:01:00;23.60;;;3.20;;
4049;SDS011;2039;50.894;6.888;2023-12-20T12:03:27;25.63;;;2.90;;
4049;SDS011;2039;50.894;6.888;2023-12-20T12:05:53;31.33;;;4.17;;
4049;SDS011;2039;50.894;6.888;2023-12-20T12:08:19;36.63;;;3.53;;
4049;SDS011;2039;50.894;6.888;2023-12-20T12:10:45;30.07;;;3.47;;
4049;SDS011;2039;50.894;6.888;2023-12-20T12:13:13;26.83;;;3.60;;
4049;SDS011;2039;50.894;6.888;2023-12-20T12:15:39;25.63;;;2.65;;
4049;SDS011;2039;50.894;6.888;2023-12-20T12:18:07;24.95;;;3.15;;
4049;SDS011;2039;50.894;6.888;2023-12-20T12:20:33;24.30;;;2.85;;
4049;SDS011;2039;50.894;6.888;2023-12-20T12:23:03;26.20;;;3.25;;
4049;SDS011;2039;50.894;6.888;2023-12-20T12:25:31;23.17;;;3.78;;
4049;SDS011;2039;50.894;6.888;2023-12-20T12:27:58;22.33;;;2.75;;
4049;SDS011;2039;50.894;6.888;2023-12-20T12:30:24;23.50;;;3.08;;
4049;SDS011;2039;50.894;6.888;2023-12-20T12:32:51;28.30;;;2.63;;
4049;SDS011;2039;50.894;6.888;2023-12-20T12:35:17;28.23;;;3.72;;
4049;SDS011;2039;50.894;6.888;2023-12-20T12:37:44;24.60;;;3.47;;
4049;SDS011;2039;50.894;6.888;2023-12-20T12:40:10;29.13;;;3.70;;
4049;SDS011;2039;50.894;6.888;2023-12-20T12:42:37;27.25;;;3.03;;
4049;SDS011;2039;50.894;6.888;2023-12-20T12:45:03;32.05;;;3.33;;
4049;SDS011;2039;50.894;6.888;2023-12-20T12:47:29;29.50;;;3.80;;
4049;SDS011;2039;50.894;6.888;2023-12-20T12:49:55;26.90;;;2.88;;
4049;SDS011;2039;50.894;6.888;2023-12-20T12:52:21;24.23;;;3.33;;
4049;SDS011;2039;50.894;6.888;2023-12-20T12:54:47;25.30;;;3.70;;
4049;SDS011;2039;50.894;6.888;2023-12-20T12:57:14;24.20;;;3.45;;
4049;SDS011;2039;50.894;6.888;2023-12-20T12:59:44;28.17;;;3.45;;
4049;SDS011;2039;50.894;6.888;2023-12-20T13:02:13;32.47;;;3.92;;
4049;SDS011;2039;50.894;6.888;2023-12-20T13:04:42;29.70;;;4.05;;
4049;SDS011;2039;50.894;6.888;2023-12-20T13:07:08;32.47;;;4.15;;
4049;SDS011;2039;50.894;6.888;2023-12-20T13:09:37;29.42;;;4.25;;
4049;SDS011;2039;50.894;6.888;2023-12-20T13:12:04;24.45;;;3.15;;
4049;SDS011;2039;50.894;6.888;2023-12-20T13:14:34;24.20;;;3.50;;
4049;SDS011;2039;50.894;6.888;2023-12-20T13:17:02;25.80;;;3.25;;
4049;SDS011;2039;50.894;6.888;2023-12-20T13:19:29;28.00;;;4.15;;
4049;SDS011;2039;50.894;6.888;2023-12-20T13:21:58;25.58;;;3.20;;
4049;SDS011;2039;50.894;6.888;2023-12-20T13:24:24;27.65;;;3.40;;
4049;SDS011;2039;50.894;6.888;2023-12-20T13:26:53;31.00;;;3.97;;
4049;SDS011;2039;50.894;6.888;2023-12-20T13:29:24;31.17;;;4.70;;
4049;SDS011;2039;50.894;6.888;2023-12-20T13:31:52;27.65;;;3.15;;
4049;SDS011;2039;50.894;6.888;2023-12-20T13:34:18;25.55;;;4.07;;
4049;SDS011;2039;50.894;6.888;2023-12-20T13:36:44;28.80;;;3.80;;
4049;SDS011;2039;50.894;6.888;2023-12-20T13:39:12;25.98;;;4.25;;
4049;SDS011;2039;50.894;6.888;2023-12-20T13:41:39;31.83;;;4.03;;
4049;SDS011;2039;50.894;6.888;2023-12-20T13:44:07;28.55;;;3.53;;
4049;SDS011;2039;50.894;6.888;2023-12-20T13:46:32;27.00;;;3.43;;
4049;SDS011;2039;50.894;6.888;2023-12-20T13:49:02;27.95;;;3.58;;
4049;SDS011;2039;50.894;6.888;2023-12-20T13:51:30;26.80;;;3.67;;
4049;SDS011;2039;50.894;6.888;2023-12-20T13:53:56;28.35;;;3.60;;
4049;SDS011;2039;50.894;6.888;2023-12-20T13:56:22;25.73;;;3.45;;
4049;SDS011;2039;50.894;6.888;2023-12-20T13:58:49;24.83;;;2.50;;
4049;SDS011;2039;50.894;6.888;2023-12-20T14:01:16;30.08;;;2.83;;
4049;SDS011;2039;50.894;6.888;2023-12-20T14:03:42;30.20;;;3.60;;
4049;SDS011;2039;50.894;6.888;2023-12-20T14:06:08;23.90;;;2.50;;
4049;SDS011;2039;50.894;6.888;2023-12-20T14:08:34;28.53;;;3.50;;
4049;SDS011;2039;50.894;6.888;2023-12-20T14:11:08;26.33;;;2.88;;
4049;SDS011;2039;50.894;6.888;2023-12-20T14:13:35;25.08;;;3.00;;
4049;SDS011;2039;50.894;6.888;2023-12-20T14:16:01;29.53;;;3.00;;
4049;SDS011;2039;50.894;6.888;2023-12-20T14:18:28;23.40;;;2.22;;
4049;SDS011;2039;50.894;6.888;2023-12-20T14:20:55;26.05;;;3.25;;
4049;SDS011;2039;50.894;6.888;2023-12-20T14:23:21;29.73;;;3.40;;
4049;SDS011;2039;50.894;6.888;2023-12-20T14:25:48;28.30;;;3.22;;
4049;SDS011;2039;50.894;6.888;2023-12-20T14:28:14;26.15;;;3.30;;
4049;SDS011;2039;50.894;6.888;2023-12-20T14:30:40;24.90;;;2.70;;
4049;SDS011;2039;50.894;6.888;2023-12-20T14:33:06;26.70;;;2.80;;
4049;SDS011;2039;50.894;6.888;2023-12-20T14:35:32;26.77;;;3.80;;
4049;SDS011;2039;50.894;6.888;2023-12-20T14:37:58;24.80;;;2.33;;
4049;SDS011;2039;50.894;6.888;2023-12-20T14:40:23;29.77;;;3.00;;
4049;SDS011;2039;50.894;6.888;2023-12-20T14:42:49;25.43;;;3.03;;
4049;SDS011;2039;50.894;6.888;2023-12-20T14:45:16;25.73;;;3.67;;
4049;SDS011;2039;50.894;6.888;2023-12-20T14:47:42;27.73;;;3.47;;
4049;SDS011;2039;50.894;6.888;2023-12-20T14:50:08;26.70;;;3.60;;
4049;SDS011;2039;50.894;6.888;2023-12-20T14:52:36;27.48;;;3.22;;
4049;SDS011;2039;50.894;6.888;2023-12-20T14:55:03;30.77;;;3.30;;
4049;SDS011;2039;50.894;6.888;2023-12-20T14:57:29;25.42;;;3.50;;
4049;SDS011;2039;50.894;6.888;2023-12-20T14:59:55;26.13;;;3.00;;